sensor_id;sensor_type;location;lat;lon;timestamp;pressure;altitude;pressure_sealevel;temperature;humidity
73700;BME280;62005;50.082;8.988;2023-02-28T00:00:23;101654.19;;;0.28;64.45
73700;BME280;62005;50.082;8.988;2023-02-28T00:02:49;101661.78;;;0.32;64.47
73700;BME280;62005;50.082;8.988;2023-02-28T00:05:17;101661.44;;;0.26;64.35
73700;BME280;62005;50.082;8.988;2023-02-28T00:07:42;101652.03;;;0.22;64.10
73700;BME280;62005;50.082;8.988;2023-02-28T00:10:10;101664.09;;;0.26;64.45
73700;BME280;62005;50.082;8.988;2023-02-28T00:12:37;101653.72;;;0.23;64.74
73700;BME280;62005;50.082;8.988;2023-02-28T00:15:10;101652.28;;;0.19;64.48
73700;BME280;62005;50.082;8.988;2023-02-28T00:17:36;101644.09;;;0.11;64.42
73700;BME280;62005;50.082;8.988;2023-02-28T00:20:03;101622.47;;;0.04;64.31
73700;BME280;62005;50.082;8.988;2023-02-28T00:22:31;101650.84;;;0.15;65.07
73700;BME280;62005;50.082;8.988;2023-02-28T00:24:57;101634.69;;;0.07;64.35
73700;BME280;62005;50.082;8.988;2023-02-28T00:27:22;101645.78;;;0.12;64.95
73700;BME280;62005;50.082;8.988;2023-02-28T00:29:47;101629.13;;;-0.02;65.45
73700;BME280;62005;50.082;8.988;2023-02-28T00:32:15;101648.66;;;0.09;65.12
73700;BME280;62005;50.082;8.988;2023-02-28T00:34:41;101642.88;;;0.03;65.90
73700;BME280;62005;50.082;8.988;2023-02-28T00:37:07;101661.00;;;0.10;65.80
73700;BME280;62005;50.082;8.988;2023-02-28T00:39:35;101651.50;;;-0.04;66.06
73700;BME280;62005;50.082;8.988;2023-02-28T00:42:02;101638.31;;;-0.06;66.06
73700;BME280;62005;50.082;8.988;2023-02-28T00:44:28;101648.97;;;-0.06;66.61
73700;BME280;62005;50.082;8.988;2023-02-28T00:46:53;101653.78;;;0.00;66.33
73700;BME280;62005;50.082;8.988;2023-02-28T00:49:20;101652.34;;;-0.04;66.80
73700;BME280;62005;50.082;8.988;2023-02-28T00:51:46;101666.09;;;0.02;67.07
73700;BME280;62005;50.082;8.988;2023-02-28T00:54:11;101641.72;;;-0.15;66.77
73700;BME280;62005;50.082;8.988;2023-02-28T00:56:36;101653.16;;;-0.03;66.75
73700;BME280;62005;50.082;8.988;2023-02-28T00:59:02;101637.13;;;-0.13;67.04
73700;BME280;62005;50.082;8.988;2023-02-28T01:01:27;101644.13;;;-0.12;67.51
73700;BME280;62005;50.082;8.988;2023-02-28T01:03:52;101646.91;;;-0.13;67.24
73700;BME280;62005;50.082;8.988;2023-02-28T01:06:17;101646.19;;;-0.15;67.08
73700;BME280;62005;50.082;8.988;2023-02-28T01:08:43;101651.66;;;-0.17;67.52
73700;BME280;62005;50.082;8.988;2023-02-28T01:11:12;101658.13;;;-0.10;67.72
73700;BME280;62005;50.082;8.988;2023-02-28T01:13:37;101657.66;;;-0.15;67.47
73700;BME280;62005;50.082;8.988;2023-02-28T01:16:03;101630.25;;;-0.26;67.44
73700;BME280;62005;50.082;8.988;2023-02-28T01:18:28;101653.31;;;-0.16;67.62
73700;BME280;62005;50.082;8.988;2023-02-28T01:20:54;101648.00;;;-0.16;67.96
73700;BME280;62005;50.082;8.988;2023-02-28T01:23:21;101649.94;;;-0.18;68.18
73700;BME280;62005;50.082;8.988;2023-02-28T01:25:50;101641.47;;;-0.23;67.53
73700;BME280;62005;50.082;8.988;2023-02-28T01:28:16;101648.50;;;-0.22;67.91
73700;BME280;62005;50.082;8.988;2023-02-28T01:30:41;101637.75;;;-0.31;68.20
73700;BME280;62005;50.082;8.988;2023-02-28T01:33:06;101625.09;;;-0.39;68.61
73700;BME280;62005;50.082;8.988;2023-02-28T01:35:33;101647.28;;;-0.29;68.44
73700;BME280;62005;50.082;8.988;2023-02-28T01:37:59;101649.22;;;-0.31;69.01
73700;BME280;62005;50.082;8.988;2023-02-28T01:40:24;101647.75;;;-0.35;69.02
73700;BME280;62005;50.082;8.988;2023-02-28T01:42:49;101629.19;;;-0.46;68.73
73700;BME280;62005;50.082;8.988;2023-02-28T01:47:48;101639.31;;;-0.40;69.44
73700;BME280;62005;50.082;8.988;2023-02-28T01:50:18;101646.09;;;-0.36;69.12
73700;BME280;62005;50.082;8.988;2023-02-28T01:52:47;101649.00;;;-0.39;69.37
73700;BME280;62005;50.082;8.988;2023-02-28T01:55:31;101642.94;;;-0.41;69.60
73700;BME280;62005;50.082;8.988;2023-02-28T02:00:54;101582.88;;;-0.75;69.83
73700;BME280;62005;50.082;8.988;2023-02-28T02:03:53;101581.16;;;-0.76;69.82
73700;BME280;62005;50.082;8.988;2023-02-28T02:06:51;101551.72;;;-0.95;69.96
73700;BME280;62005;50.082;8.988;2023-02-28T02:09:26;101549.31;;;-0.98;69.82
73700;BME280;62005;50.082;8.988;2023-02-28T02:12:41;101638.00;;;-0.45;70.17
73700;BME280;62005;50.082;8.988;2023-02-28T02:22:20;101633.06;;;-0.50;70.47
73700;BME280;62005;50.082;8.988;2023-02-28T02:30:21;101624.00;;;-0.58;71.08
73700;BME280;62005;50.082;8.988;2023-02-28T02:36:03;101618.81;;;-0.60;71.22
73700;BME280;62005;50.082;8.988;2023-02-28T02:38:38;101619.78;;;-0.61;71.53
73700;BME280;62005;50.082;8.988;2023-02-28T02:41:23;101609.66;;;-0.67;71.49
73700;BME280;62005;50.082;8.988;2023-02-28T02:43:52;101602.88;;;-0.71;71.03
73700;BME280;62005;50.082;8.988;2023-02-28T02:46:33;101599.75;;;-0.76;71.32
73700;BME280;62005;50.082;8.988;2023-02-28T02:49:08;101623.03;;;-0.68;71.45
73700;BME280;62005;50.082;8.988;2023-02-28T02:51:35;101607.00;;;-0.78;71.29
73700;BME280;62005;50.082;8.988;2023-02-28T02:54:25;101617.13;;;-0.72;71.88
73700;BME280;62005;50.082;8.988;2023-02-28T02:57:01;101601.09;;;-0.81;71.22
73700;BME280;62005;50.082;8.988;2023-02-28T02:59:29;101619.03;;;-0.74;71.37
73700;BME280;62005;50.082;8.988;2023-02-28T03:02:00;101622.69;;;-0.75;71.57
73700;BME280;62005;50.082;8.988;2023-02-28T03:04:31;101611.81;;;-0.83;71.56
73700;BME280;62005;50.082;8.988;2023-02-28T03:06:58;101602.63;;;-0.90;71.69
73700;BME280;62005;50.082;8.988;2023-02-28T03:09:25;101610.84;;;-0.82;71.07
73700;BME280;62005;50.082;8.988;2023-02-28T03:11:51;101611.09;;;-0.85;71.45
73700;BME280;62005;50.082;8.988;2023-02-28T03:17:43;101616.16;;;-0.82;71.87
73700;BME280;62005;50.082;8.988;2023-02-28T03:23:16;101616.41;;;-0.85;72.12
73700;BME280;62005;50.082;8.988;2023-02-28T03:26:04;101618.31;;;-0.87;72.11
73700;BME280;62005;50.082;8.988;2023-02-28T03:33:45;101589.94;;;-0.97;71.91
73700;BME280;62005;50.082;8.988;2023-02-28T03:36:15;101614.94;;;-0.89;72.12
73700;BME280;62005;50.082;8.988;2023-02-28T03:38:50;101611.53;;;-0.91;72.05
73700;BME280;62005;50.082;8.988;2023-02-28T03:41:23;101619.50;;;-0.91;72.14
73700;BME280;62005;50.082;8.988;2023-02-28T03:43:58;101606.72;;;-0.97;72.01
73700;BME280;62005;50.082;8.988;2023-02-28T03:46:27;101618.81;;;-0.93;71.90
73700;BME280;62005;50.082;8.988;2023-02-28T03:51:28;101607.81;;;-0.99;72.48
73700;BME280;62005;50.082;8.988;2023-02-28T03:53:58;101599.00;;;-1.00;72.51
73700;BME280;62005;50.082;8.988;2023-02-28T03:58:58;101622.41;;;-0.94;72.99
73700;BME280;62005;50.082;8.988;2023-02-28T04:01:36;101609.75;;;-1.01;72.64
73700;BME280;62005;50.082;8.988;2023-02-28T04:04:03;101619.03;;;-0.96;72.53
73700;BME280;62005;50.082;8.988;2023-02-28T04:06:32;101614.81;;;-0.98;72.47
73700;BME280;62005;50.082;8.988;2023-02-28T04:09:07;101617.22;;;-0.95;72.84
73700;BME280;62005;50.082;8.988;2023-02-28T04:11:42;101571.72;;;-1.24;72.62
73700;BME280;62005;50.082;8.988;2023-02-28T04:14:11;101620.47;;;-0.92;72.79
73700;BME280;62005;50.082;8.988;2023-02-28T04:16:39;101617.09;;;-0.94;72.57
73700;BME280;62005;50.082;8.988;2023-02-28T04:19:08;101628.31;;;-0.90;72.48
73700;BME280;62005;50.082;8.988;2023-02-28T04:21:46;101612.03;;;-0.97;72.77
73700;BME280;62005;50.082;8.988;2023-02-28T04:24:18;101620.25;;;-0.89;72.76
73700;BME280;62005;50.082;8.988;2023-02-28T04:26:46;101606.13;;;-1.00;72.35
73700;BME280;62005;50.082;8.988;2023-02-28T04:29:34;101550.84;;;-1.28;72.73
73700;BME280;62005;50.082;8.988;2023-02-28T04:34:54;101551.22;;;-1.33;72.08
73700;BME280;62005;50.082;8.988;2023-02-28T04:37:38;101564.72;;;-1.25;71.97
73700;BME280;62005;50.082;8.988;2023-02-28T04:40:19;101550.97;;;-1.30;71.90
73700;BME280;62005;50.082;8.988;2023-02-28T04:42:47;101549.53;;;-1.34;71.74
73700;BME280;62005;50.082;8.988;2023-02-28T04:45:21;101530.69;;;-1.42;72.37
73700;BME280;62005;50.082;8.988;2023-02-28T04:47:48;101579.69;;;-1.13;72.03
73700;BME280;62005;50.082;8.988;2023-02-28T04:50:16;101569.34;;;-1.16;71.99
73700;BME280;62005;50.082;8.988;2023-02-28T04:52:42;101600.22;;;-0.93;71.93
73700;BME280;62005;50.082;8.988;2023-02-28T04:55:07;101611.34;;;-0.88;71.61
73700;BME280;62005;50.082;8.988;2023-02-28T04:57:33;101612.78;;;-0.84;71.33
73700;BME280;62005;50.082;8.988;2023-02-28T05:00:00;101603.94;;;-0.95;71.70
73700;BME280;62005;50.082;8.988;2023-02-28T05:02:26;101592.84;;;-1.00;71.49
73700;BME280;62005;50.082;8.988;2023-02-28T05:04:51;101599.50;;;-0.95;71.51
73700;BME280;62005;50.082;8.988;2023-02-28T05:07:16;101607.94;;;-0.90;71.53
73700;BME280;62005;50.082;8.988;2023-02-28T05:09:42;101601.91;;;-0.92;71.19
73700;BME280;62005;50.082;8.988;2023-02-28T05:12:08;101615.53;;;-0.85;71.37
73700;BME280;62005;50.082;8.988;2023-02-28T05:14:34;101601.41;;;-0.97;71.40
73700;BME280;62005;50.082;8.988;2023-02-28T05:16:59;101614.69;;;-0.86;71.51
73700;BME280;62005;50.082;8.988;2023-02-28T05:19:25;101614.81;;;-0.87;70.99
73700;BME280;62005;50.082;8.988;2023-02-28T05:21:53;101608.44;;;-0.96;71.25
73700;BME280;62005;50.082;8.988;2023-02-28T05:24:18;101613.50;;;-0.93;71.12
73700;BME280;62005;50.082;8.988;2023-02-28T05:26:53;101620.00;;;-0.86;71.07
73700;BME280;62005;50.082;8.988;2023-02-28T05:29:18;101630.59;;;-0.86;71.36
73700;BME280;62005;50.082;8.988;2023-02-28T05:31:44;101627.25;;;-0.88;70.82
73700;BME280;62005;50.082;8.988;2023-02-28T05:34:09;101612.88;;;-0.96;70.91
73700;BME280;62005;50.082;8.988;2023-02-28T05:36:37;101625.53;;;-0.89;70.95
73700;BME280;62005;50.082;8.988;2023-02-28T05:39:05;101630.84;;;-0.89;71.00
73700;BME280;62005;50.082;8.988;2023-02-28T05:41:31;101624.13;;;-0.93;70.90
73700;BME280;62005;50.082;8.988;2023-02-28T05:43:57;101630.97;;;-0.90;70.73
73700;BME280;62005;50.082;8.988;2023-02-28T05:46:22;101636.91;;;-0.87;70.52
73700;BME280;62005;50.082;8.988;2023-02-28T05:48:48;101636.16;;;-0.89;70.54
73700;BME280;62005;50.082;8.988;2023-02-28T05:51:14;101646.78;;;-0.89;70.25
73700;BME280;62005;50.082;8.988;2023-02-28T05:53:39;101640.84;;;-0.92;70.41
73700;BME280;62005;50.082;8.988;2023-02-28T05:56:05;101628.56;;;-0.93;70.11
73700;BME280;62005;50.082;8.988;2023-02-28T05:58:31;101650.41;;;-0.90;70.29
73700;BME280;62005;50.082;8.988;2023-02-28T06:00:57;101647.03;;;-0.92;70.32
73700;BME280;62005;50.082;8.988;2023-02-28T06:03:23;101637.63;;;-0.96;70.45
73700;BME280;62005;50.082;8.988;2023-02-28T06:06:00;101574.59;;;-1.38;70.68
73700;BME280;62005;50.082;8.988;2023-02-28T06:08:34;101576.06;;;-1.34;70.39
73700;BME280;62005;50.082;8.988;2023-02-28T06:11:09;101579.41;;;-1.32;70.44
73700;BME280;62005;50.082;8.988;2023-02-28T06:13:59;101583.03;;;-1.33;70.11
73700;BME280;62005;50.082;8.988;2023-02-28T06:17:03;101566.13;;;-1.43;70.21
73700;BME280;62005;50.082;8.988;2023-02-28T06:19:31;101622.13;;;-1.13;70.28
73700;BME280;62005;50.082;8.988;2023-02-28T06:22:20;101625.16;;;-1.17;70.12
73700;BME280;62005;50.082;8.988;2023-02-28T06:25:14;101619.00;;;-1.18;70.17
73700;BME280;62005;50.082;8.988;2023-02-28T06:27:43;101580.97;;;-1.41;70.44
73700;BME280;62005;50.082;8.988;2023-02-28T06:30:24;101605.72;;;-1.29;69.88
73700;BME280;62005;50.082;8.988;2023-02-28T06:33:34;101666.56;;;-0.93;70.05
73700;BME280;62005;50.082;8.988;2023-02-28T06:36:18;101599.63;;;-1.42;69.71
73700;BME280;62005;50.082;8.988;2023-02-28T06:39:22;101600.13;;;-1.37;70.00
73700;BME280;62005;50.082;8.988;2023-02-28T06:42:06;101587.34;;;-1.43;70.18
73700;BME280;62005;50.082;8.988;2023-02-28T06:44:38;101659.53;;;-1.05;70.47
73700;BME280;62005;50.082;8.988;2023-02-28T06:47:11;101671.41;;;-0.87;70.67
73700;BME280;62005;50.082;8.988;2023-02-28T06:49:42;101631.78;;;-1.12;70.63
73700;BME280;62005;50.082;8.988;2023-02-28T06:52:36;101677.69;;;-0.77;70.89
73700;BME280;62005;50.082;8.988;2023-02-28T06:58:45;101666.59;;;-0.71;70.58
73700;BME280;62005;50.082;8.988;2023-02-28T07:01:19;101603.94;;;-0.95;70.24
73700;BME280;62005;50.082;8.988;2023-02-28T07:07:14;101620.75;;;-0.62;69.42
73700;BME280;62005;50.082;8.988;2023-02-28T07:10:19;101622.66;;;-0.53;69.31
73700;BME280;62005;50.082;8.988;2023-02-28T07:19:09;101661.97;;;0.09;68.51
73700;BME280;62005;50.082;8.988;2023-02-28T07:21:55;101695.50;;;0.43;68.29
73700;BME280;62005;50.082;8.988;2023-02-28T07:24:20;101697.13;;;0.55;67.98
73700;BME280;62005;50.082;8.988;2023-02-28T07:26:45;101696.13;;;0.67;67.61
73700;BME280;62005;50.082;8.988;2023-02-28T07:29:11;101690.06;;;0.76;67.77
73700;BME280;62005;50.082;8.988;2023-02-28T07:31:36;101688.06;;;0.89;67.24
73700;BME280;62005;50.082;8.988;2023-02-28T07:34:01;101686.53;;;0.96;66.59
73700;BME280;62005;50.082;8.988;2023-02-28T07:36:28;101689.75;;;1.10;66.15
73700;BME280;62005;50.082;8.988;2023-02-28T07:38:53;101689.81;;;1.20;65.92
73700;BME280;62005;50.082;8.988;2023-02-28T07:41:20;101685.66;;;1.27;65.35
73700;BME280;62005;50.082;8.988;2023-02-28T07:43:46;101687.47;;;1.47;65.36
73700;BME280;62005;50.082;8.988;2023-02-28T07:46:14;101684.00;;;1.56;64.90
73700;BME280;62005;50.082;8.988;2023-02-28T07:48:43;101690.78;;;1.70;64.37
73700;BME280;62005;50.082;8.988;2023-02-28T07:51:09;101690.69;;;1.81;64.09
73700;BME280;62005;50.082;8.988;2023-02-28T07:53:34;101682.28;;;1.85;63.71
73700;BME280;62005;50.082;8.988;2023-02-28T07:56:01;101687.97;;;2.01;62.93
73700;BME280;62005;50.082;8.988;2023-02-28T07:58:28;101688.84;;;2.11;63.46
73700;BME280;62005;50.082;8.988;2023-02-28T08:00:54;101679.84;;;2.12;61.72
73700;BME280;62005;50.082;8.988;2023-02-28T08:03:21;101687.16;;;2.20;61.98
73700;BME280;62005;50.082;8.988;2023-02-28T08:05:47;101690.31;;;2.34;61.84
73700;BME280;62005;50.082;8.988;2023-02-28T08:08:13;101695.09;;;2.40;61.19
73700;BME280;62005;50.082;8.988;2023-02-28T08:10:38;101696.22;;;2.47;60.38
73700;BME280;62005;50.082;8.988;2023-02-28T08:13:04;101682.19;;;2.45;60.85
73700;BME280;62005;50.082;8.988;2023-02-28T08:15:29;101686.25;;;2.59;60.64
73700;BME280;62005;50.082;8.988;2023-02-28T08:17:54;101667.88;;;2.56;60.00
73700;BME280;62005;50.082;8.988;2023-02-28T08:20:21;101676.84;;;2.64;59.85
73700;BME280;62005;50.082;8.988;2023-02-28T08:30:32;101648.47;;;2.83;59.11
73700;BME280;62005;50.082;8.988;2023-02-28T08:50:04;101677.81;;;3.67;56.70
73700;BME280;62005;50.082;8.988;2023-02-28T08:52:30;101685.72;;;3.68;55.85
73700;BME280;62005;50.082;8.988;2023-02-28T08:54:55;101673.25;;;3.77;54.47
73700;BME280;62005;50.082;8.988;2023-02-28T08:57:21;101675.38;;;3.83;54.90
73700;BME280;62005;50.082;8.988;2023-02-28T08:59:46;101681.66;;;3.91;55.44
73700;BME280;62005;50.082;8.988;2023-02-28T09:02:13;101678.25;;;3.99;54.15
73700;BME280;62005;50.082;8.988;2023-02-28T09:04:39;101672.88;;;3.99;54.85
73700;BME280;62005;50.082;8.988;2023-02-28T09:07:05;101674.53;;;4.10;53.88
73700;BME280;62005;50.082;8.988;2023-02-28T09:13:04;101657.63;;;4.09;52.44
73700;BME280;62005;50.082;8.988;2023-02-28T09:16:45;101609.63;;;3.80;50.00
73700;BME280;62005;50.082;8.988;2023-02-28T09:19:32;101678.44;;;4.15;49.52
73700;BME280;62005;50.082;8.988;2023-02-28T09:22:20;101606.88;;;3.72;48.50
73700;BME280;62005;50.082;8.988;2023-02-28T09:25:07;101632.06;;;3.97;51.33
73700;BME280;62005;50.082;8.988;2023-02-28T09:27:43;101620.53;;;3.96;49.36
73700;BME280;62005;50.082;8.988;2023-02-28T09:30:37;101595.59;;;3.78;49.29
73700;BME280;62005;50.082;8.988;2023-02-28T09:33:41;101610.56;;;3.89;48.68
73700;BME280;62005;50.082;8.988;2023-02-28T09:36:49;101611.88;;;3.85;48.79
73700;BME280;62005;50.082;8.988;2023-02-28T09:39:47;101655.66;;;4.11;49.00
73700;BME280;62005;50.082;8.988;2023-02-28T09:43:05;101632.59;;;4.00;48.53
73700;BME280;62005;50.082;8.988;2023-02-28T09:49:38;101620.56;;;3.87;49.02
73700;BME280;62005;50.082;8.988;2023-02-28T10:07:11;101685.88;;;3.94;48.49
73700;BME280;62005;50.082;8.988;2023-02-28T10:13:19;101651.53;;;3.89;49.54
73700;BME280;62005;50.082;8.988;2023-02-28T10:15:51;101655.16;;;3.98;47.88
73700;BME280;62005;50.082;8.988;2023-02-28T10:18:24;101668.94;;;4.03;48.28
73700;BME280;62005;50.082;8.988;2023-02-28T10:21:42;101635.81;;;3.77;47.69
73700;BME280;62005;50.082;8.988;2023-02-28T10:27:32;101610.03;;;3.58;48.64
73700;BME280;62005;50.082;8.988;2023-02-28T10:30:13;101658.91;;;3.78;48.23
73700;BME280;62005;50.082;8.988;2023-02-28T10:32:52;101608.09;;;3.51;48.32
73700;BME280;62005;50.082;8.988;2023-02-28T10:38:22;101652.16;;;3.74;48.63
73700;BME280;62005;50.082;8.988;2023-02-28T10:41:08;101636.72;;;3.68;49.01
73700;BME280;62005;50.082;8.988;2023-02-28T10:43:49;101641.88;;;3.79;50.06
73700;BME280;62005;50.082;8.988;2023-02-28T10:46:25;101617.22;;;3.58;48.58
73700;BME280;62005;50.082;8.988;2023-02-28T10:49:05;101653.56;;;3.78;48.28
73700;BME280;62005;50.082;8.988;2023-02-28T10:51:45;101617.31;;;3.66;49.55
73700;BME280;62005;50.082;8.988;2023-02-28T10:54:38;101619.59;;;3.61;48.03
73700;BME280;62005;50.082;8.988;2023-02-28T10:57:38;101606.00;;;3.72;48.31
73700;BME280;62005;50.082;8.988;2023-02-28T11:00:24;101596.97;;;3.82;48.44
73700;BME280;62005;50.082;8.988;2023-02-28T11:03:23;101625.44;;;4.01;47.68
73700;BME280;62005;50.082;8.988;2023-02-28T11:06:16;101644.66;;;4.14;48.21
73700;BME280;62005;50.082;8.988;2023-02-28T11:08:56;101598.91;;;3.90;47.20
73700;BME280;62005;50.082;8.988;2023-02-28T11:11:42;101665.91;;;4.33;48.18
73700;BME280;62005;50.082;8.988;2023-02-28T11:14:28;101612.53;;;4.14;47.49
73700;BME280;62005;50.082;8.988;2023-02-28T11:19:49;101655.41;;;4.49;47.67
73700;BME280;62005;50.082;8.988;2023-02-28T11:22:21;101642.41;;;4.54;47.75
73700;BME280;62005;50.082;8.988;2023-02-28T11:24:50;101637.81;;;4.64;47.77
73700;BME280;62005;50.082;8.988;2023-02-28T11:29:55;101646.38;;;4.85;46.47
73700;BME280;62005;50.082;8.988;2023-02-28T11:32:24;101649.41;;;4.90;47.07
73700;BME280;62005;50.082;8.988;2023-02-28T11:35:17;101649.66;;;4.97;45.75
73700;BME280;62005;50.082;8.988;2023-02-28T11:38:17;101642.78;;;5.02;46.72
73700;BME280;62005;50.082;8.988;2023-02-28T11:45:08;101583.38;;;4.81;45.06
73700;BME280;62005;50.082;8.988;2023-02-28T11:52:50;101630.84;;;5.14;43.84
73700;BME280;62005;50.082;8.988;2023-02-28T12:01:22;101629.59;;;5.26;45.01
73700;BME280;62005;50.082;8.988;2023-02-28T12:07:12;101614.84;;;5.30;44.66
73700;BME280;62005;50.082;8.988;2023-02-28T12:12:23;101631.75;;;5.49;44.70
73700;BME280;62005;50.082;8.988;2023-02-28T12:20:36;101594.81;;;5.43;44.28
73700;BME280;62005;50.082;8.988;2023-02-28T12:28:42;101586.78;;;5.43;43.22
73700;BME280;62005;50.082;8.988;2023-02-28T12:31:31;101584.44;;;5.40;43.06
73700;BME280;62005;50.082;8.988;2023-02-28T12:34:13;101601.94;;;5.52;44.07
73700;BME280;62005;50.082;8.988;2023-02-28T12:36:58;101599.59;;;5.57;44.75
73700;BME280;62005;50.082;8.988;2023-02-28T12:39:35;101585.19;;;5.58;44.70
73700;BME280;62005;50.082;8.988;2023-02-28T12:42:05;101607.22;;;5.77;44.29
73700;BME280;62005;50.082;8.988;2023-02-28T12:44:43;101596.31;;;5.71;44.69
73700;BME280;62005;50.082;8.988;2023-02-28T12:47:14;101621.56;;;5.86;44.58
73700;BME280;62005;50.082;8.988;2023-02-28T12:50:04;101619.22;;;5.91;45.04
73700;BME280;62005;50.082;8.988;2023-02-28T12:55:45;101588.06;;;5.98;45.02
73700;BME280;62005;50.082;8.988;2023-02-28T12:58:33;101597.16;;;6.13;44.57
73700;BME280;62005;50.082;8.988;2023-02-28T13:01:22;101593.81;;;6.11;44.09
73700;BME280;62005;50.082;8.988;2023-02-28T13:09:53;101578.72;;;6.18;43.88
73700;BME280;62005;50.082;8.988;2023-02-28T13:12:20;101584.09;;;6.26;44.35
73700;BME280;62005;50.082;8.988;2023-02-28T13:14:47;101578.56;;;6.27;44.32
73700;BME280;62005;50.082;8.988;2023-02-28T13:17:24;101565.31;;;6.26;44.18
73700;BME280;62005;50.082;8.988;2023-02-28T13:24:52;101586.47;;;6.45;44.67
73700;BME280;62005;50.082;8.988;2023-02-28T13:29:49;101586.66;;;6.51;44.61
73700;BME280;62005;50.082;8.988;2023-02-28T13:32:27;101585.81;;;6.51;44.09
73700;BME280;62005;50.082;8.988;2023-02-28T13:40:30;101581.13;;;6.61;43.88
73700;BME280;62005;50.082;8.988;2023-02-28T13:43:02;101565.66;;;6.55;43.85
73700;BME280;62005;50.082;8.988;2023-02-28T13:45:28;101578.09;;;6.64;44.73
73700;BME280;62005;50.082;8.988;2023-02-28T13:47:59;101575.75;;;6.69;45.49
73700;BME280;62005;50.082;8.988;2023-02-28T13:55:52;101580.63;;;6.74;43.74
73700;BME280;62005;50.082;8.988;2023-02-28T14:09:02;101567.53;;;6.63;43.73
73700;BME280;62005;50.082;8.988;2023-02-28T14:11:34;101563.31;;;6.60;43.70
73700;BME280;62005;50.082;8.988;2023-02-28T14:14:01;101568.19;;;6.56;44.10
73700;BME280;62005;50.082;8.988;2023-02-28T14:16:40;101562.28;;;6.53;44.84
73700;BME280;62005;50.082;8.988;2023-02-28T14:19:23;101564.66;;;6.48;44.33
73700;BME280;62005;50.082;8.988;2023-02-28T14:30:43;101563.97;;;6.38;44.64
73700;BME280;62005;50.082;8.988;2023-02-28T14:36:01;101546.84;;;6.31;44.33
73700;BME280;62005;50.082;8.988;2023-02-28T14:38:31;101547.84;;;6.22;44.64
73700;BME280;62005;50.082;8.988;2023-02-28T14:40:58;101547.50;;;6.25;45.03
73700;BME280;62005;50.082;8.988;2023-02-28T14:43:27;101539.78;;;6.14;45.30
73700;BME280;62005;50.082;8.988;2023-02-28T14:46:00;101542.81;;;6.19;44.67
73700;BME280;62005;50.082;8.988;2023-02-28T14:48:27;101542.81;;;6.19;45.43
73700;BME280;62005;50.082;8.988;2023-02-28T14:50:59;101537.09;;;6.14;45.99
73700;BME280;62005;50.082;8.988;2023-02-28T14:53:30;101534.41;;;6.14;44.35
73700;BME280;62005;50.082;8.988;2023-02-28T14:56:00;101527.69;;;6.02;45.02
73700;BME280;62005;50.082;8.988;2023-02-28T14:58:33;101544.81;;;6.09;45.07
73700;BME280;62005;50.082;8.988;2023-02-28T15:01:01;101525.31;;;5.99;44.76
73700;BME280;62005;50.082;8.988;2023-02-28T15:03:38;101534.75;;;6.03;45.34
73700;BME280;62005;50.082;8.988;2023-02-28T15:06:06;101526.69;;;6.03;45.20
73700;BME280;62005;50.082;8.988;2023-02-28T15:08:37;101530.69;;;5.99;45.75
73700;BME280;62005;50.082;8.988;2023-02-28T15:11:05;101516.94;;;5.94;45.17
73700;BME280;62005;50.082;8.988;2023-02-28T15:13:40;101539.44;;;6.01;45.84
73700;BME280;62005;50.082;8.988;2023-02-28T15:16:13;101526.34;;;5.98;45.97
73700;BME280;62005;50.082;8.988;2023-02-28T15:18:56;101526.69;;;6.03;45.98
73700;BME280;62005;50.082;8.988;2023-02-28T15:21:26;101529.03;;;5.98;45.77
73700;BME280;62005;50.082;8.988;2023-02-28T15:23:59;101509.72;;;5.86;45.75
73700;BME280;62005;50.082;8.988;2023-02-28T15:26:31;101522.63;;;5.91;45.74
73700;BME280;62005;50.082;8.988;2023-02-28T15:29:00;101522.63;;;5.91;45.00
73700;BME280;62005;50.082;8.988;2023-02-28T15:31:29;101519.59;;;5.86;45.77
73700;BME280;62005;50.082;8.988;2023-02-28T15:33:58;101536.41;;;5.96;45.63
73700;BME280;62005;50.082;8.988;2023-02-28T15:36:32;101544.44;;;5.96;46.00
73700;BME280;62005;50.082;8.988;2023-02-28T15:39:00;101528.66;;;5.85;45.97
73700;BME280;62005;50.082;8.988;2023-02-28T15:41:37;101546.78;;;5.91;45.80
73700;BME280;62005;50.082;8.988;2023-02-28T15:47:03;101538.91;;;5.89;46.44
73700;BME280;62005;50.082;8.988;2023-02-28T15:49:34;101542.72;;;5.87;46.80
73700;BME280;62005;50.082;8.988;2023-02-28T15:52:01;101513.84;;;5.73;46.38
73700;BME280;62005;50.082;8.988;2023-02-28T15:54:29;101536.88;;;5.83;46.46
73700;BME280;62005;50.082;8.988;2023-02-28T15:57:01;101529.25;;;5.79;47.25
73700;BME280;62005;50.082;8.988;2023-02-28T15:59:29;101527.56;;;5.70;46.74
73700;BME280;62005;50.082;8.988;2023-02-28T16:04:37;101539.00;;;5.72;47.26
73700;BME280;62005;50.082;8.988;2023-02-28T16:07:19;101548.03;;;5.71;47.11
73700;BME280;62005;50.082;8.988;2023-02-28T16:09:44;101534.91;;;5.60;46.64
73700;BME280;62005;50.082;8.988;2023-02-28T16:12:10;101513.09;;;5.47;47.49
73700;BME280;62005;50.082;8.988;2023-02-28T16:14:38;101552.34;;;5.64;46.78
73700;BME280;62005;50.082;8.988;2023-02-28T16:17:16;101542.28;;;5.58;47.05
73700;BME280;62005;50.082;8.988;2023-02-28T16:19:44;101542.94;;;5.52;47.03
73700;BME280;62005;50.082;8.988;2023-02-28T16:22:10;101526.13;;;5.42;46.76
73700;BME280;62005;50.082;8.988;2023-02-28T16:24:35;101535.47;;;5.38;46.97
73700;BME280;62005;50.082;8.988;2023-02-28T16:27:01;101541.88;;;5.45;47.06
73700;BME280;62005;50.082;8.988;2023-02-28T16:29:30;101546.22;;;5.38;47.49
73700;BME280;62005;50.082;8.988;2023-02-28T16:31:57;101553.56;;;5.35;47.41
73700;BME280;62005;50.082;8.988;2023-02-28T16:34:23;101567.66;;;5.38;47.31
73700;BME280;62005;50.082;8.988;2023-02-28T16:36:49;101554.88;;;5.23;47.74
73700;BME280;62005;50.082;8.988;2023-02-28T16:39:15;101559.91;;;5.26;47.54
73700;BME280;62005;50.082;8.988;2023-02-28T16:41:44;101571.47;;;5.27;47.59
73700;BME280;62005;50.082;8.988;2023-02-28T16:44:13;101572.94;;;5.21;48.09
73700;BME280;62005;50.082;8.988;2023-02-28T16:46:39;101578.28;;;5.21;47.81
73700;BME280;62005;50.082;8.988;2023-02-28T16:49:10;101568.50;;;5.12;47.63